sensor_id;sensor_type;location;lat;lon;timestamp;P1;durP1;ratioP1;P2;durP2;ratioP2
9138;SDS011;4604;48.616;9.548;2022-12-16T00:02:09;37.90;;;17.90;;
9138;SDS011;4604;48.616;9.548;2022-12-16T00:04:36;41.53;;;18.27;;
9138;SDS011;4604;48.616;9.548;2022-12-16T00:07:02;36.37;;;16.90;;
9138;SDS011;4604;48.616;9.548;2022-12-16T00:09:29;32.87;;;17.67;;
9138;SDS011;4604;48.616;9.548;2022-12-16T00:11:56;32.73;;;15.13;;
9138;SDS011;4604;48.616;9.548;2022-12-16T00:14:23;35.57;;;17.83;;
9138;SDS011;4604;48.616;9.548;2022-12-16T00:16:51;40.97;;;18.30;;
9138;SDS011;4604;48.616;9.548;2022-12-16T00:19:19;45.50;;;17.40;;
9138;SDS011;4604;48.616;9.548;2022-12-16T00:21:46;32.93;;;16.67;;
9138;SDS011;4604;48.616;9.548;2022-12-16T00:24:12;34.17;;;17.50;;
9138;SDS011;4604;48.616;9.548;2022-12-16T00:26:39;34.97;;;18.47;;
9138;SDS011;4604;48.616;9.548;2022-12-16T00:29:06;38.93;;;16.20;;
9138;SDS011;4604;48.616;9.548;2022-12-16T00:31:35;36.23;;;18.07;;
9138;SDS011;4604;48.616;9.548;2022-12-16T00:34:02;41.67;;;17.97;;
9138;SDS011;4604;48.616;9.548;2022-12-16T00:36:30;30.23;;;17.47;;
9138;SDS011;4604;48.616;9.548;2022-12-16T00:38:56;34.37;;;16.50;;
9138;SDS011;4604;48.616;9.548;2022-12-16T00:41:23;38.23;;;16.90;;
9138;SDS011;4604;48.616;9.548;2022-12-16T00:43:50;29.23;;;15.60;;
9138;SDS011;4604;48.616;9.548;2022-12-16T00:46:16;36.13;;;16.17;;
9138;SDS011;4604;48.616;9.548;2022-12-16T00:48:43;30.27;;;15.73;;
9138;SDS011;4604;48.616;9.548;2022-12-16T00:51:09;30.07;;;16.23;;
9138;SDS011;4604;48.616;9.548;2022-12-16T00:53:38;114.47;;;40.87;;
9138;SDS011;4604;48.616;9.548;2022-12-16T00:56:05;37.93;;;17.47;;
9138;SDS011;4604;48.616;9.548;2022-12-16T00:58:34;32.20;;;15.37;;
9138;SDS011;4604;48.616;9.548;2022-12-16T01:01:01;43.53;;;17.23;;
9138;SDS011;4604;48.616;9.548;2022-12-16T01:03:28;36.50;;;17.00;;
9138;SDS011;4604;48.616;9.548;2022-12-16T01:05:55;41.13;;;17.13;;
9138;SDS011;4604;48.616;9.548;2022-12-16T01:08:22;37.93;;;18.30;;
9138;SDS011;4604;48.616;9.548;2022-12-16T01:10:51;36.90;;;17.90;;
9138;SDS011;4604;48.616;9.548;2022-12-16T01:13:20;40.10;;;17.83;;
9138;SDS011;4604;48.616;9.548;2022-12-16T01:15:48;35.63;;;18.17;;
9138;SDS011;4604;48.616;9.548;2022-12-16T01:18:16;40.57;;;19.60;;
9138;SDS011;4604;48.616;9.548;2022-12-16T01:20:43;38.83;;;19.33;;
9138;SDS011;4604;48.616;9.548;2022-12-16T01:23:09;44.30;;;19.43;;
9138;SDS011;4604;48.616;9.548;2022-12-16T01:25:36;48.80;;;20.70;;
9138;SDS011;4604;48.616;9.548;2022-12-16T01:28:04;39.70;;;19.73;;
9138;SDS011;4604;48.616;9.548;2022-12-16T01:30:31;45.43;;;20.73;;
9138;SDS011;4604;48.616;9.548;2022-12-16T01:32:57;35.20;;;18.57;;
9138;SDS011;4604;48.616;9.548;2022-12-16T01:35:24;35.17;;;17.33;;
9138;SDS011;4604;48.616;9.548;2022-12-16T01:37:51;33.13;;;17.33;;
9138;SDS011;4604;48.616;9.548;2022-12-16T01:40:18;37.43;;;18.40;;
9138;SDS011;4604;48.616;9.548;2022-12-16T01:42:47;38.00;;;18.83;;
9138;SDS011;4604;48.616;9.548;2022-12-16T01:45:27;34.20;;;17.77;;
9138;SDS011;4604;48.616;9.548;2022-12-16T01:47:57;32.73;;;17.47;;
9138;SDS011;4604;48.616;9.548;2022-12-16T01:50:27;33.57;;;17.53;;
9138;SDS011;4604;48.616;9.548;2022-12-16T01:52:55;37.93;;;16.63;;
9138;SDS011;4604;48.616;9.548;2022-12-16T01:55:24;32.77;;;16.17;;
9138;SDS011;4604;48.616;9.548;2022-12-16T01:57:56;37.63;;;17.13;;
9138;SDS011;4604;48.616;9.548;2022-12-16T02:00:28;32.93;;;15.30;;
9138;SDS011;4604;48.616;9.548;2022-12-16T02:02:55;31.43;;;16.03;;
9138;SDS011;4604;48.616;9.548;2022-12-16T02:05:23;37.93;;;16.90;;
9138;SDS011;4604;48.616;9.548;2022-12-16T02:07:55;39.30;;;15.93;;
9138;SDS011;4604;48.616;9.548;2022-12-16T02:10:27;33.20;;;15.90;;
9138;SDS011;4604;48.616;9.548;2022-12-16T02:13:05;35.37;;;16.13;;
9138;SDS011;4604;48.616;9.548;2022-12-16T02:15:40;34.77;;;16.77;;
9138;SDS011;4604;48.616;9.548;2022-12-16T02:18:11;33.73;;;16.50;;
9138;SDS011;4604;48.616;9.548;2022-12-16T02:23:53;35.00;;;16.27;;
9138;SDS011;4604;48.616;9.548;2022-12-16T02:26:56;28.37;;;15.57;;
9138;SDS011;4604;48.616;9.548;2022-12-16T02:30:05;30.47;;;15.63;;
9138;SDS011;4604;48.616;9.548;2022-12-16T02:32:44;32.93;;;16.20;;
9138;SDS011;4604;48.616;9.548;2022-12-16T02:35:24;28.40;;;15.07;;
9138;SDS011;4604;48.616;9.548;2022-12-16T02:37:59;35.57;;;16.73;;
9138;SDS011;4604;48.616;9.548;2022-12-16T02:40:37;33.47;;;16.37;;
9138;SDS011;4604;48.616;9.548;2022-12-16T02:43:11;35.07;;;17.33;;
9138;SDS011;4604;48.616;9.548;2022-12-16T02:45:42;37.20;;;17.93;;
9138;SDS011;4604;48.616;9.548;2022-12-16T02:48:11;38.03;;;17.93;;
9138;SDS011;4604;48.616;9.548;2022-12-16T02:50:39;38.57;;;17.97;;
9138;SDS011;4604;48.616;9.548;2022-12-16T02:53:08;37.73;;;16.70;;
9138;SDS011;4604;48.616;9.548;2022-12-16T02:55:39;41.77;;;17.83;;
9138;SDS011;4604;48.616;9.548;2022-12-16T02:58:15;37.47;;;17.10;;
9138;SDS011;4604;48.616;9.548;2022-12-16T03:00:51;35.83;;;16.03;;
9138;SDS011;4604;48.616;9.548;2022-12-16T03:03:28;33.07;;;16.83;;
9138;SDS011;4604;48.616;9.548;2022-12-16T03:05:57;37.53;;;17.07;;
9138;SDS011;4604;48.616;9.548;2022-12-16T03:08:28;34.43;;;17.00;;
9138;SDS011;4604;48.616;9.548;2022-12-16T03:10:58;35.30;;;17.17;;
9138;SDS011;4604;48.616;9.548;2022-12-16T03:13:28;34.50;;;17.43;;
9138;SDS011;4604;48.616;9.548;2022-12-16T03:15:59;38.20;;;17.13;;
9138;SDS011;4604;48.616;9.548;2022-12-16T03:18:29;39.10;;;17.30;;
9138;SDS011;4604;48.616;9.548;2022-12-16T03:20:58;35.33;;;17.40;;
9138;SDS011;4604;48.616;9.548;2022-12-16T03:23:30;37.30;;;18.27;;
9138;SDS011;4604;48.616;9.548;2022-12-16T03:26:02;35.40;;;17.53;;
9138;SDS011;4604;48.616;9.548;2022-12-16T03:28:35;35.43;;;18.10;;
9138;SDS011;4604;48.616;9.548;2022-12-16T03:31:12;38.67;;;18.17;;
9138;SDS011;4604;48.616;9.548;2022-12-16T03:33:47;38.03;;;18.67;;
9138;SDS011;4604;48.616;9.548;2022-12-16T03:36:19;32.17;;;17.17;;
9138;SDS011;4604;48.616;9.548;2022-12-16T03:38:48;37.30;;;16.87;;
9138;SDS011;4604;48.616;9.548;2022-12-16T03:41:16;36.40;;;16.93;;
9138;SDS011;4604;48.616;9.548;2022-12-16T03:43:45;33.37;;;16.47;;
9138;SDS011;4604;48.616;9.548;2022-12-16T03:46:14;34.60;;;18.10;;
9138;SDS011;4604;48.616;9.548;2022-12-16T03:48:47;35.70;;;18.30;;
9138;SDS011;4604;48.616;9.548;2022-12-16T03:51:15;38.27;;;16.70;;
9138;SDS011;4604;48.616;9.548;2022-12-16T03:53:42;36.73;;;18.47;;
9138;SDS011;4604;48.616;9.548;2022-12-16T03:56:09;34.33;;;17.23;;
9138;SDS011;4604;48.616;9.548;2022-12-16T03:58:36;36.20;;;16.73;;
9138;SDS011;4604;48.616;9.548;2022-12-16T04:01:04;35.77;;;17.70;;
9138;SDS011;4604;48.616;9.548;2022-12-16T04:03:31;40.80;;;19.27;;
9138;SDS011;4604;48.616;9.548;2022-12-16T04:05:59;38.57;;;19.33;;
9138;SDS011;4604;48.616;9.548;2022-12-16T04:08:26;40.43;;;18.30;;
9138;SDS011;4604;48.616;9.548;2022-12-16T04:10:53;38.90;;;17.53;;
9138;SDS011;4604;48.616;9.548;2022-12-16T04:13:37;33.37;;;17.67;;
9138;SDS011;4604;48.616;9.548;2022-12-16T04:16:21;40.83;;;18.20;;
9138;SDS011;4604;48.616;9.548;2022-12-16T04:19:09;42.83;;;19.03;;
9138;SDS011;4604;48.616;9.548;2022-12-16T04:22:00;35.97;;;17.93;;
9138;SDS011;4604;48.616;9.548;2022-12-16T04:24:44;38.97;;;18.77;;
9138;SDS011;4604;48.616;9.548;2022-12-16T04:27:11;38.47;;;18.60;;
9138;SDS011;4604;48.616;9.548;2022-12-16T04:29:49;34.53;;;17.97;;
9138;SDS011;4604;48.616;9.548;2022-12-16T04:32:34;41.80;;;18.87;;
9138;SDS011;4604;48.616;9.548;2022-12-16T04:35:15;43.40;;;19.83;;
9138;SDS011;4604;48.616;9.548;2022-12-16T04:38:00;37.73;;;20.13;;
9138;SDS011;4604;48.616;9.548;2022-12-16T04:40:45;38.57;;;18.07;;
9138;SDS011;4604;48.616;9.548;2022-12-16T04:43:29;41.53;;;18.83;;
9138;SDS011;4604;48.616;9.548;2022-12-16T04:46:14;39.30;;;18.20;;
9138;SDS011;4604;48.616;9.548;2022-12-16T04:48:57;44.67;;;19.83;;
9138;SDS011;4604;48.616;9.548;2022-12-16T04:51:41;37.63;;;18.00;;
9138;SDS011;4604;48.616;9.548;2022-12-16T04:54:27;45.57;;;19.00;;
9138;SDS011;4604;48.616;9.548;2022-12-16T04:57:11;39.93;;;18.40;;
9138;SDS011;4604;48.616;9.548;2022-12-16T04:59:55;42.97;;;19.47;;
9138;SDS011;4604;48.616;9.548;2022-12-16T05:02:39;40.80;;;20.10;;
9138;SDS011;4604;48.616;9.548;2022-12-16T05:05:23;49.97;;;21.33;;
9138;SDS011;4604;48.616;9.548;2022-12-16T05:08:06;43.37;;;21.43;;
9138;SDS011;4604;48.616;9.548;2022-12-16T05:10:52;48.20;;;21.40;;
9138;SDS011;4604;48.616;9.548;2022-12-16T05:13:36;46.17;;;19.70;;
9138;SDS011;4604;48.616;9.548;2022-12-16T05:16:20;39.43;;;19.87;;
9138;SDS011;4604;48.616;9.548;2022-12-16T05:19:04;45.33;;;21.17;;
9138;SDS011;4604;48.616;9.548;2022-12-16T05:21:48;50.40;;;22.23;;
9138;SDS011;4604;48.616;9.548;2022-12-16T05:24:34;45.90;;;20.23;;
9138;SDS011;4604;48.616;9.548;2022-12-16T05:27:20;46.83;;;20.50;;
9138;SDS011;4604;48.616;9.548;2022-12-16T05:30:04;46.03;;;22.47;;
9138;SDS011;4604;48.616;9.548;2022-12-16T05:32:49;49.60;;;21.80;;
9138;SDS011;4604;48.616;9.548;2022-12-16T05:35:33;44.93;;;21.00;;
9138;SDS011;4604;48.616;9.548;2022-12-16T05:38:17;49.10;;;23.90;;
9138;SDS011;4604;48.616;9.548;2022-12-16T05:41:01;50.10;;;22.40;;
9138;SDS011;4604;48.616;9.548;2022-12-16T05:43:46;49.90;;;22.67;;
9138;SDS011;4604;48.616;9.548;2022-12-16T05:46:30;42.00;;;20.67;;
9138;SDS011;4604;48.616;9.548;2022-12-16T05:49:14;52.00;;;23.33;;
9138;SDS011;4604;48.616;9.548;2022-12-16T05:51:58;42.20;;;20.77;;
9138;SDS011;4604;48.616;9.548;2022-12-16T05:54:42;49.07;;;21.73;;
9138;SDS011;4604;48.616;9.548;2022-12-16T05:57:28;42.17;;;21.00;;
9138;SDS011;4604;48.616;9.548;2022-12-16T06:00:16;47.03;;;23.37;;
9138;SDS011;4604;48.616;9.548;2022-12-16T06:03:01;45.97;;;21.70;;
9138;SDS011;4604;48.616;9.548;2022-12-16T06:05:44;46.57;;;21.23;;
9138;SDS011;4604;48.616;9.548;2022-12-16T06:08:28;45.67;;;23.33;;
9138;SDS011;4604;48.616;9.548;2022-12-16T06:11:12;47.70;;;21.83;;
9138;SDS011;4604;48.616;9.548;2022-12-16T06:13:56;51.23;;;21.23;;
9138;SDS011;4604;48.616;9.548;2022-12-16T06:16:42;42.87;;;21.07;;
9138;SDS011;4604;48.616;9.548;2022-12-16T06:19:26;50.33;;;22.23;;
9138;SDS011;4604;48.616;9.548;2022-12-16T06:22:10;47.33;;;22.10;;
9138;SDS011;4604;48.616;9.548;2022-12-16T06:24:54;43.00;;;19.60;;
9138;SDS011;4604;48.616;9.548;2022-12-16T06:27:38;42.47;;;21.07;;
9138;SDS011;4604;48.616;9.548;2022-12-16T06:30:22;45.67;;;21.30;;
9138;SDS011;4604;48.616;9.548;2022-12-16T06:33:07;44.73;;;21.10;;
9138;SDS011;4604;48.616;9.548;2022-12-16T06:35:51;47.60;;;21.03;;
9138;SDS011;4604;48.616;9.548;2022-12-16T06:38:35;45.17;;;20.97;;
9138;SDS011;4604;48.616;9.548;2022-12-16T06:41:19;43.23;;;22.43;;
9138;SDS011;4604;48.616;9.548;2022-12-16T06:44:04;48.43;;;21.73;;
9138;SDS011;4604;48.616;9.548;2022-12-16T06:46:48;49.90;;;22.43;;
9138;SDS011;4604;48.616;9.548;2022-12-16T06:49:33;45.80;;;21.10;;
9138;SDS011;4604;48.616;9.548;2022-12-16T06:52:17;39.10;;;20.33;;
9138;SDS011;4604;48.616;9.548;2022-12-16T06:55:01;41.77;;;19.70;;
9138;SDS011;4604;48.616;9.548;2022-12-16T06:57:45;49.33;;;21.80;;
9138;SDS011;4604;48.616;9.548;2022-12-16T07:00:29;45.90;;;19.37;;
9138;SDS011;4604;48.616;9.548;2022-12-16T07:03:13;39.27;;;18.83;;
9138;SDS011;4604;48.616;9.548;2022-12-16T07:05:59;41.23;;;19.77;;
9138;SDS011;4604;48.616;9.548;2022-12-16T07:08:42;41.80;;;19.67;;
9138;SDS011;4604;48.616;9.548;2022-12-16T07:11:26;40.33;;;19.03;;
9138;SDS011;4604;48.616;9.548;2022-12-16T07:14:10;39.57;;;19.03;;
9138;SDS011;4604;48.616;9.548;2022-12-16T07:16:54;38.83;;;17.87;;
9138;SDS011;4604;48.616;9.548;2022-12-16T07:19:38;38.33;;;18.73;;
9138;SDS011;4604;48.616;9.548;2022-12-16T07:22:24;38.40;;;18.87;;
9138;SDS011;4604;48.616;9.548;2022-12-16T07:25:07;36.83;;;17.33;;
9138;SDS011;4604;48.616;9.548;2022-12-16T07:27:52;41.97;;;18.40;;
9138;SDS011;4604;48.616;9.548;2022-12-16T07:30:35;35.30;;;17.53;;
9138;SDS011;4604;48.616;9.548;2022-12-16T07:33:19;40.23;;;18.83;;
9138;SDS011;4604;48.616;9.548;2022-12-16T07:36:03;36.20;;;19.27;;
9138;SDS011;4604;48.616;9.548;2022-12-16T07:38:50;37.03;;;18.27;;
9138;SDS011;4604;48.616;9.548;2022-12-16T07:41:33;38.47;;;18.33;;
9138;SDS011;4604;48.616;9.548;2022-12-16T07:44:17;43.33;;;19.70;;
9138;SDS011;4604;48.616;9.548;2022-12-16T07:47:01;36.73;;;18.63;;
9138;SDS011;4604;48.616;9.548;2022-12-16T07:49:45;39.23;;;19.07;;
9138;SDS011;4604;48.616;9.548;2022-12-16T07:52:29;35.17;;;17.33;;
9138;SDS011;4604;48.616;9.548;2022-12-16T07:55:11;34.13;;;17.37;;
9138;SDS011;4604;48.616;9.548;2022-12-16T07:58:07;51.47;;;19.43;;
9138;SDS011;4604;48.616;9.548;2022-12-16T08:00:52;39.37;;;19.13;;
9138;SDS011;4604;48.616;9.548;2022-12-16T08:03:36;41.93;;;19.03;;
9138;SDS011;4604;48.616;9.548;2022-12-16T08:06:20;41.10;;;19.83;;
9138;SDS011;4604;48.616;9.548;2022-12-16T08:09:04;39.97;;;18.97;;
9138;SDS011;4604;48.616;9.548;2022-12-16T08:11:52;39.93;;;18.77;;
9138;SDS011;4604;48.616;9.548;2022-12-16T08:14:36;41.70;;;20.07;;
9138;SDS011;4604;48.616;9.548;2022-12-16T08:17:19;42.90;;;17.80;;
9138;SDS011;4604;48.616;9.548;2022-12-16T08:20:04;40.40;;;17.77;;
9138;SDS011;4604;48.616;9.548;2022-12-16T08:22:48;35.90;;;18.93;;
9138;SDS011;4604;48.616;9.548;2022-12-16T08:25:32;38.73;;;17.33;;
9138;SDS011;4604;48.616;9.548;2022-12-16T08:28:18;33.43;;;16.60;;
9138;SDS011;4604;48.616;9.548;2022-12-16T08:31:02;41.63;;;18.27;;
9138;SDS011;4604;48.616;9.548;2022-12-16T08:33:46;39.50;;;18.93;;
9138;SDS011;4604;48.616;9.548;2022-12-16T08:36:30;31.83;;;16.80;;
9138;SDS011;4604;48.616;9.548;2022-12-16T08:39:14;42.73;;;17.93;;
9138;SDS011;4604;48.616;9.548;2022-12-16T08:41:58;36.77;;;18.37;;
9138;SDS011;4604;48.616;9.548;2022-12-16T08:44:43;35.87;;;16.00;;
9138;SDS011;4604;48.616;9.548;2022-12-16T08:47:27;34.27;;;17.60;;
9138;SDS011;4604;48.616;9.548;2022-12-16T08:50:11;37.67;;;17.83;;
9138;SDS011;4604;48.616;9.548;2022-12-16T08:52:55;33.53;;;17.07;;
9138;SDS011;4604;48.616;9.548;2022-12-16T08:55:39;33.40;;;16.83;;
9138;SDS011;4604;48.616;9.548;2022-12-16T08:58:23;29.97;;;15.97;;
9138;SDS011;4604;48.616;9.548;2022-12-16T09:01:08;27.47;;;15.63;;
9138;SDS011;4604;48.616;9.548;2022-12-16T09:03:52;33.47;;;16.67;;
9138;SDS011;4604;48.616;9.548;2022-12-16T09:06:36;29.33;;;16.50;;
9138;SDS011;4604;48.616;9.548;2022-12-16T09:09:20;39.10;;;16.73;;
9138;SDS011;4604;48.616;9.548;2022-12-16T09:12:04;37.40;;;17.90;;
9138;SDS011;4604;48.616;9.548;2022-12-16T09:14:49;40.33;;;16.77;;
9138;SDS011;4604;48.616;9.548;2022-12-16T09:17:34;31.07;;;14.03;;
9138;SDS011;4604;48.616;9.548;2022-12-16T09:20:18;29.83;;;14.57;;
9138;SDS011;4604;48.616;9.548;2022-12-16T09:23:02;29.47;;;14.87;;
9138;SDS011;4604;48.616;9.548;2022-12-16T09:25:47;31.93;;;15.67;;
9138;SDS011;4604;48.616;9.548;2022-12-16T09:28:32;26.07;;;13.90;;
9138;SDS011;4604;48.616;9.548;2022-12-16T09:31:16;34.13;;;14.13;;
9138;SDS011;4604;48.616;9.548;2022-12-16T09:34:01;24.70;;;13.50;;
9138;SDS011;4604;48.616;9.548;2022-12-16T09:36:45;24.77;;;12.70;;
9138;SDS011;4604;48.616;9.548;2022-12-16T09:39:31;26.13;;;13.23;;
9138;SDS011;4604;48.616;9.548;2022-12-16T09:42:19;23.20;;;12.80;;
9138;SDS011;4604;48.616;9.548;2022-12-16T09:45:23;29.60;;;15.27;;
9138;SDS011;4604;48.616;9.548;2022-12-16T09:48:17;28.57;;;14.17;;
9138;SDS011;4604;48.616;9.548;2022-12-16T09:51:09;27.83;;;13.77;;
9138;SDS011;4604;48.616;9.548;2022-12-16T09:53:55;25.47;;;13.87;;
9138;SDS011;4604;48.616;9.548;2022-12-16T09:56:43;26.60;;;14.67;;
9138;SDS011;4604;48.616;9.548;2022-12-16T09:59:42;23.97;;;13.10;;
9138;SDS011;4604;48.616;9.548;2022-12-16T10:02:47;24.30;;;13.93;;
9138;SDS011;4604;48.616;9.548;2022-12-16T10:05:35;28.80;;;12.60;;
9138;SDS011;4604;48.616;9.548;2022-12-16T10:08:28;27.17;;;14.30;;
9138;SDS011;4604;48.616;9.548;2022-12-16T10:11:36;25.77;;;12.97;;
9138;SDS011;4604;48.616;9.548;2022-12-16T10:14:35;27.53;;;14.40;;
9138;SDS011;4604;48.616;9.548;2022-12-16T10:17:24;27.00;;;12.60;;
9138;SDS011;4604;48.616;9.548;2022-12-16T10:20:11;24.97;;;12.33;;
9138;SDS011;4604;48.616;9.548;2022-12-16T10:23:00;25.77;;;13.60;;
9138;SDS011;4604;48.616;9.548;2022-12-16T10:25:50;33.30;;;14.90;;
9138;SDS011;4604;48.616;9.548;2022-12-16T10:28:41;28.13;;;13.43;;
9138;SDS011;4604;48.616;9.548;2022-12-16T10:31:28;23.00;;;12.27;;
9138;SDS011;4604;48.616;9.548;2022-12-16T10:34:14;29.60;;;14.37;;
9138;SDS011;4604;48.616;9.548;2022-12-16T10:37:01;27.13;;;13.27;;
9138;SDS011;4604;48.616;9.548;2022-12-16T10:39:46;26.37;;;15.27;;
9138;SDS011;4604;48.616;9.548;2022-12-16T10:42:35;26.37;;;13.40;;
9138;SDS011;4604;48.616;9.548;2022-12-16T10:45:26;30.27;;;13.70;;
9138;SDS011;4604;48.616;9.548;2022-12-16T10:48:12;25.13;;;13.37;;
9138;SDS011;4604;48.616;9.548;2022-12-16T10:50:59;30.63;;;12.80;;
9138;SDS011;4604;48.616;9.548;2022-12-16T10:53:43;27.83;;;12.97;;
9138;SDS011;4604;48.616;9.548;2022-12-16T10:56:33;22.70;;;12.57;;
9138;SDS011;4604;48.616;9.548;2022-12-16T10:59:34;29.87;;;12.80;;
9138;SDS011;4604;48.616;9.548;2022-12-16T11:02:22;29.00;;;13.93;;
9138;SDS011;4604;48.616;9.548;2022-12-16T11:05:28;31.17;;;14.33;;
9138;SDS011;4604;48.616;9.548;2022-12-16T11:08:21;23.23;;;11.93;;
9138;SDS011;4604;48.616;9.548;2022-12-16T11:11:12;25.63;;;12.67;;
9138;SDS011;4604;48.616;9.548;2022-12-16T11:14:16;27.63;;;13.40;;
9138;SDS011;4604;48.616;9.548;2022-12-16T11:17:18;29.03;;;13.43;;
9138;SDS011;4604;48.616;9.548;2022-12-16T11:20:09;28.10;;;13.50;;
9138;SDS011;4604;48.616;9.548;2022-12-16T11:23:10;19.67;;;11.83;;
9138;SDS011;4604;48.616;9.548;2022-12-16T11:26:05;29.07;;;13.20;;
9138;SDS011;4604;48.616;9.548;2022-12-16T11:29:01;21.20;;;11.80;;
9138;SDS011;4604;48.616;9.548;2022-12-16T11:31:55;22.63;;;11.83;;
9138;SDS011;4604;48.616;9.548;2022-12-16T11:34:45;21.93;;;12.00;;
9138;SDS011;4604;48.616;9.548;2022-12-16T11:37:34;25.80;;;12.13;;
9138;SDS011;4604;48.616;9.548;2022-12-16T11:40:21;21.83;;;11.77;;
9138;SDS011;4604;48.616;9.548;2022-12-16T11:43:07;23.90;;;13.67;;
9138;SDS011;4604;48.616;9.548;2022-12-16T11:45:55;24.57;;;13.27;;
9138;SDS011;4604;48.616;9.548;2022-12-16T11:48:42;25.43;;;13.67;;
9138;SDS011;4604;48.616;9.548;2022-12-16T11:51:32;29.23;;;14.17;;
9138;SDS011;4604;48.616;9.548;2022-12-16T11:54:20;28.53;;;15.07;;
9138;SDS011;4604;48.616;9.548;2022-12-16T11:57:17;28.47;;;13.73;;
9138;SDS011;4604;48.616;9.548;2022-12-16T12:00:05;31.47;;;15.20;;
9138;SDS011;4604;48.616;9.548;2022-12-16T12:02:57;22.33;;;12.07;;
9138;SDS011;4604;48.616;9.548;2022-12-16T12:05:51;29.30;;;12.77;;
9138;SDS011;4604;48.616;9.548;2022-12-16T12:08:44;26.23;;;11.97;;
9138;SDS011;4604;48.616;9.548;2022-12-16T12:11:33;23.90;;;12.03;;
9138;SDS011;4604;48.616;9.548;2022-12-16T12:14:23;23.47;;;11.73;;
9138;SDS011;4604;48.616;9.548;2022-12-16T12:17:17;21.20;;;10.87;;
9138;SDS011;4604;48.616;9.548;2022-12-16T12:20:23;21.47;;;11.57;;
9138;SDS011;4604;48.616;9.548;2022-12-16T12:23:22;20.40;;;12.50;;
9138;SDS011;4604;48.616;9.548;2022-12-16T12:26:20;16.73;;;8.70;;
9138;SDS011;4604;48.616;9.548;2022-12-16T12:29:13;17.93;;;9.37;;
9138;SDS011;4604;48.616;9.548;2022-12-16T12:32:05;21.57;;;10.00;;
9138;SDS011;4604;48.616;9.548;2022-12-16T12:35:02;18.00;;;9.10;;
9138;SDS011;4604;48.616;9.548;2022-12-16T12:37:57;16.17;;;8.17;;
9138;SDS011;4604;48.616;9.548;2022-12-16T12:40:48;20.40;;;10.10;;
9138;SDS011;4604;48.616;9.548;2022-12-16T12:43:45;13.93;;;8.87;;
9138;SDS011;4604;48.616;9.548;2022-12-16T12:46:38;19.93;;;9.90;;
9138;SDS011;4604;48.616;9.548;2022-12-16T12:49:30;23.43;;;10.33;;
9138;SDS011;4604;48.616;9.548;2022-12-16T12:52:23;27.10;;;11.03;;
9138;SDS011;4604;48.616;9.548;2022-12-16T12:55:19;17.30;;;9.10;;
9138;SDS011;4604;48.616;9.548;2022-12-16T12:58:08;18.53;;;9.83;;
9138;SDS011;4604;48.616;9.548;2022-12-16T13:00:56;20.20;;;10.37;;
9138;SDS011;4604;48.616;9.548;2022-12-16T13:03:42;21.60;;;9.27;;
9138;SDS011;4604;48.616;9.548;2022-12-16T13:06:29;18.17;;;8.83;;
9138;SDS011;4604;48.616;9.548;2022-12-16T13:12:26;20.57;;;9.73;;
9138;SDS011;4604;48.616;9.548;2022-12-16T13:18:24;16.50;;;9.17;;
9138;SDS011;4604;48.616;9.548;2022-12-16T13:24:33;16.00;;;8.87;;
9138;SDS011;4604;48.616;9.548;2022-12-16T13:27:20;20.47;;;10.50;;
9138;SDS011;4604;48.616;9.548;2022-12-16T13:30:16;18.37;;;10.77;;
9138;SDS011;4604;48.616;9.548;2022-12-16T13:33:04;22.77;;;10.30;;
9138;SDS011;4604;48.616;9.548;2022-12-16T13:35:53;17.30;;;9.60;;
9138;SDS011;4604;48.616;9.548;2022-12-16T13:38:43;19.00;;;10.37;;
9138;SDS011;4604;48.616;9.548;2022-12-16T13:41:49;19.10;;;10.33;;
9138;SDS011;4604;48.616;9.548;2022-12-16T13:44:54;20.87;;;10.33;;
9138;SDS011;4604;48.616;9.548;2022-12-16T13:50:48;25.60;;;10.73;;
9138;SDS011;4604;48.616;9.548;2022-12-16T13:53:37;21.67;;;10.17;;
9138;SDS011;4604;48.616;9.548;2022-12-16T13:56:28;18.37;;;9.30;;
9138;SDS011;4604;48.616;9.548;2022-12-16T13:59:19;23.47;;;10.10;;
9138;SDS011;4604;48.616;9.548;2022-12-16T14:02:12;16.73;;;9.73;;
9138;SDS011;4604;48.616;9.548;2022-12-16T14:05:16;23.53;;;11.27;;
9138;SDS011;4604;48.616;9.548;2022-12-16T14:08:03;17.73;;;9.37;;
9138;SDS011;4604;48.616;9.548;2022-12-16T14:10:54;17.30;;;9.70;;
9138;SDS011;4604;48.616;9.548;2022-12-16T14:13:44;18.73;;;9.27;;
9138;SDS011;4604;48.616;9.548;2022-12-16T14:16:36;20.90;;;10.23;;
9138;SDS011;4604;48.616;9.548;2022-12-16T14:19:31;19.43;;;10.00;;
9138;SDS011;4604;48.616;9.548;2022-12-16T14:22:29;16.70;;;9.57;;
9138;SDS011;4604;48.616;9.548;2022-12-16T14:25:31;19.63;;;10.37;;
9138;SDS011;4604;48.616;9.548;2022-12-16T14:28:20;19.17;;;9.37;;
9138;SDS011;4604;48.616;9.548;2022-12-16T14:31:11;16.50;;;9.13;;
9138;SDS011;4604;48.616;9.548;2022-12-16T14:33:58;17.53;;;9.73;;
9138;SDS011;4604;48.616;9.548;2022-12-16T14:36:44;16.67;;;9.03;;
9138;SDS011;4604;48.616;9.548;2022-12-16T14:39:30;17.87;;;10.30;;
9138;SDS011;4604;48.616;9.548;2022-12-16T14:42:23;21.40;;;10.27;;
9138;SDS011;4604;48.616;9.548;2022-12-16T14:45:25;22.63;;;10.17;;
9138;SDS011;4604;48.616;9.548;2022-12-16T14:48:23;25.93;;;12.73;;
9138;SDS011;4604;48.616;9.548;2022-12-16T14:51:19;20.27;;;9.87;;
9138;SDS011;4604;48.616;9.548;2022-12-16T14:57:10;18.43;;;9.53;;
9138;SDS011;4604;48.616;9.548;2022-12-16T15:00:08;21.67;;;10.23;;
9138;SDS011;4604;48.616;9.548;2022-12-16T15:02:58;20.63;;;10.03;;
9138;SDS011;4604;48.616;9.548;2022-12-16T15:05:46;18.70;;;9.53;;
9138;SDS011;4604;48.616;9.548;2022-12-16T15:08:31;19.13;;;10.47;;
9138;SDS011;4604;48.616;9.548;2022-12-16T15:11:19;20.43;;;10.40;;
9138;SDS011;4604;48.616;9.548;2022-12-16T15:14:08;21.97;;;10.83;;
9138;SDS011;4604;48.616;9.548;2022-12-16T15:16:57;19.10;;;10.90;;
9138;SDS011;4604;48.616;9.548;2022-12-16T15:19:44;19.83;;;10.90;;
9138;SDS011;4604;48.616;9.548;2022-12-16T15:22:31;22.23;;;11.53;;
9138;SDS011;4604;48.616;9.548;2022-12-16T15:25:17;18.00;;;10.23;;
9138;SDS011;4604;48.616;9.548;2022-12-16T15:28:18;22.97;;;12.03;;
9138;SDS011;4604;48.616;9.548;2022-12-16T15:31:14;20.50;;;10.73;;
9138;SDS011;4604;48.616;9.548;2022-12-16T15:37:17;22.93;;;12.03;;
9138;SDS011;4604;48.616;9.548;2022-12-16T15:40:20;24.53;;;12.27;;
9138;SDS011;4604;48.616;9.548;2022-12-16T15:43:18;22.73;;;12.70;;
9138;SDS011;4604;48.616;9.548;2022-12-16T15:46:04;22.67;;;11.27;;
9138;SDS011;4604;48.616;9.548;2022-12-16T15:48:48;24.10;;;11.13;;
9138;SDS011;4604;48.616;9.548;2022-12-16T15:51:42;22.23;;;11.03;;
9138;SDS011;4604;48.616;9.548;2022-12-16T15:54:30;20.37;;;11.77;;
9138;SDS011;4604;48.616;9.548;2022-12-16T15:57:25;25.63;;;13.47;;
9138;SDS011;4604;48.616;9.548;2022-12-16T16:00:17;21.53;;;12.47;;
9138;SDS011;4604;48.616;9.548;2022-12-16T16:03:04;22.70;;;10.93;;
9138;SDS011;4604;48.616;9.548;2022-12-16T16:05:59;23.57;;;10.93;;
9138;SDS011;4604;48.616;9.548;2022-12-16T16:08:43;20.67;;;10.30;;
9138;SDS011;4604;48.616;9.548;2022-12-16T16:11:34;22.37;;;11.73;;
9138;SDS011;4604;48.616;9.548;2022-12-16T16:14:20;19.20;;;10.37;;
9138;SDS011;4604;48.616;9.548;2022-12-16T16:17:07;19.10;;;9.87;;
9138;SDS011;4604;48.616;9.548;2022-12-16T16:20:03;19.80;;;11.00;;
9138;SDS011;4604;48.616;9.548;2022-12-16T16:22:47;34.33;;;15.93;;
9138;SDS011;4604;48.616;9.548;2022-12-16T16:25:32;23.60;;;12.43;;
9138;SDS011;4604;48.616;9.548;2022-12-16T16:28:17;22.40;;;11.37;;
9138;SDS011;4604;48.616;9.548;2022-12-16T16:31:01;20.10;;;10.60;;
9138;SDS011;4604;48.616;9.548;2022-12-16T16:33:45;24.23;;;11.13;;
9138;SDS011;4604;48.616;9.548;2022-12-16T16:36:29;17.07;;;10.13;;
9138;SDS011;4604;48.616;9.548;2022-12-16T16:39:14;19.77;;;10.17;;
9138;SDS011;4604;48.616;9.548;2022-12-16T16:41:58;16.97;;;10.37;;
9138;SDS011;4604;48.616;9.548;2022-12-16T16:44:43;19.00;;;9.30;;
9138;SDS011;4604;48.616;9.548;2022-12-16T16:47:27;19.90;;;9.67;;